sensor_id;sensor_type;location;lat;lon;timestamp;P1;durP1;ratioP1;P2;durP2;ratioP2
78183;SDS011;67442;44.570;18.610;2023-09-19T00:00:16;13.27;;;5.82;;
78183;SDS011;67442;44.570;18.610;2023-09-19T00:02:52;11.57;;;5.32;;
78183;SDS011;67442;44.570;18.610;2023-09-19T00:05:24;12.57;;;5.50;;
78183;SDS011;67442;44.570;18.610;2023-09-19T00:07:56;13.50;;;6.45;;
78183;SDS011;67442;44.570;18.610;2023-09-19T00:10:27;14.10;;;6.47;;
78183;SDS011;67442;44.570;18.610;2023-09-19T00:12:57;10.52;;;5.57;;
78183;SDS011;67442;44.570;18.610;2023-09-19T00:15:28;10.30;;;5.55;;
78183;SDS011;67442;44.570;18.610;2023-09-19T00:18:01;11.90;;;5.35;;
78183;SDS011;67442;44.570;18.610;2023-09-19T00:20:32;10.88;;;5.25;;
78183;SDS011;67442;44.570;18.610;2023-09-19T00:23:01;9.77;;;5.00;;
78183;SDS011;67442;44.570;18.610;2023-09-19T00:25:35;8.45;;;4.88;;
78183;SDS011;67442;44.570;18.610;2023-09-19T00:28:03;10.48;;;5.03;;
78183;SDS011;67442;44.570;18.610;2023-09-19T00:30:31;9.85;;;4.80;;
78183;SDS011;67442;44.570;18.610;2023-09-19T00:32:58;10.63;;;5.13;;
78183;SDS011;67442;44.570;18.610;2023-09-19T00:35:26;10.30;;;4.65;;
78183;SDS011;67442;44.570;18.610;2023-09-19T00:37:54;10.20;;;5.13;;
78183;SDS011;67442;44.570;18.610;2023-09-19T00:40:25;6.72;;;4.20;;
78183;SDS011;67442;44.570;18.610;2023-09-19T00:42:58;9.10;;;4.72;;
78183;SDS011;67442;44.570;18.610;2023-09-19T00:45:25;11.50;;;4.75;;
78183;SDS011;67442;44.570;18.610;2023-09-19T00:47:52;9.50;;;4.70;;
78183;SDS011;67442;44.570;18.610;2023-09-19T00:50:19;10.38;;;4.97;;
78183;SDS011;67442;44.570;18.610;2023-09-19T00:52:53;7.43;;;4.63;;
78183;SDS011;67442;44.570;18.610;2023-09-19T00:55:24;8.82;;;4.78;;
78183;SDS011;67442;44.570;18.610;2023-09-19T00:57:56;9.73;;;4.85;;
78183;SDS011;67442;44.570;18.610;2023-09-19T01:00:26;7.97;;;4.45;;
78183;SDS011;67442;44.570;18.610;2023-09-19T01:02:54;10.32;;;4.63;;
78183;SDS011;67442;44.570;18.610;2023-09-19T01:05:25;9.32;;;4.50;;
78183;SDS011;67442;44.570;18.610;2023-09-19T01:07:52;7.38;;;4.15;;
78183;SDS011;67442;44.570;18.610;2023-09-19T01:10:19;11.27;;;4.53;;
78183;SDS011;67442;44.570;18.610;2023-09-19T01:12:54;7.28;;;4.15;;
78183;SDS011;67442;44.570;18.610;2023-09-19T01:18:47;7.35;;;4.22;;
78183;SDS011;67442;44.570;18.610;2023-09-19T01:29:44;7.38;;;4.07;;
78183;SDS011;67442;44.570;18.610;2023-09-19T01:32:34;8.70;;;4.50;;
78183;SDS011;67442;44.570;18.610;2023-09-19T01:35:06;9.80;;;4.78;;
78183;SDS011;67442;44.570;18.610;2023-09-19T01:37:38;9.85;;;4.55;;
78183;SDS011;67442;44.570;18.610;2023-09-19T01:40:06;9.13;;;4.38;;
78183;SDS011;67442;44.570;18.610;2023-09-19T01:45:59;7.57;;;4.50;;
78183;SDS011;67442;44.570;18.610;2023-09-19T01:51:02;10.98;;;4.63;;
78183;SDS011;67442;44.570;18.610;2023-09-19T01:56:05;5.30;;;3.65;;
78183;SDS011;67442;44.570;18.610;2023-09-19T01:58:45;7.72;;;4.05;;
78183;SDS011;67442;44.570;18.610;2023-09-19T02:01:36;9.43;;;4.35;;
78183;SDS011;67442;44.570;18.610;2023-09-19T02:04:04;7.47;;;4.07;;
78183;SDS011;67442;44.570;18.610;2023-09-19T02:06:32;7.22;;;4.22;;
78183;SDS011;67442;44.570;18.610;2023-09-19T02:09:02;6.97;;;4.40;;
78183;SDS011;67442;44.570;18.610;2023-09-19T02:11:30;7.03;;;4.28;;
78183;SDS011;67442;44.570;18.610;2023-09-19T02:13:57;7.50;;;4.38;;
78183;SDS011;67442;44.570;18.610;2023-09-19T02:16:25;9.90;;;4.63;;
78183;SDS011;67442;44.570;18.610;2023-09-19T02:18:54;9.30;;;4.40;;
78183;SDS011;67442;44.570;18.610;2023-09-19T02:21:21;7.60;;;4.20;;
78183;SDS011;67442;44.570;18.610;2023-09-19T02:23:48;9.20;;;4.70;;
78183;SDS011;67442;44.570;18.610;2023-09-19T02:26:17;8.95;;;4.47;;
78183;SDS011;67442;44.570;18.610;2023-09-19T02:28:44;8.15;;;4.55;;
78183;SDS011;67442;44.570;18.610;2023-09-19T02:31:15;9.27;;;4.43;;
78183;SDS011;67442;44.570;18.610;2023-09-19T02:33:42;9.50;;;4.20;;
78183;SDS011;67442;44.570;18.610;2023-09-19T02:36:09;6.13;;;3.95;;
78183;SDS011;67442;44.570;18.610;2023-09-19T02:38:36;7.00;;;4.18;;
78183;SDS011;67442;44.570;18.610;2023-09-19T02:41:04;6.20;;;4.28;;
78183;SDS011;67442;44.570;18.610;2023-09-19T02:43:31;9.05;;;4.78;;
78183;SDS011;67442;44.570;18.610;2023-09-19T02:45:59;7.95;;;3.90;;
78183;SDS011;67442;44.570;18.610;2023-09-19T02:48:31;7.95;;;4.55;;
78183;SDS011;67442;44.570;18.610;2023-09-19T02:51:00;8.07;;;4.30;;
78183;SDS011;67442;44.570;18.610;2023-09-19T02:53:33;6.32;;;4.15;;
78183;SDS011;67442;44.570;18.610;2023-09-19T02:56:01;7.72;;;4.22;;
78183;SDS011;67442;44.570;18.610;2023-09-19T02:58:29;6.57;;;4.28;;
78183;SDS011;67442;44.570;18.610;2023-09-19T03:01:07;6.30;;;4.20;;
78183;SDS011;67442;44.570;18.610;2023-09-19T03:03:44;8.25;;;4.63;;
78183;SDS011;67442;44.570;18.610;2023-09-19T03:06:11;6.20;;;4.18;;
78183;SDS011;67442;44.570;18.610;2023-09-19T03:08:38;7.57;;;4.63;;
78183;SDS011;67442;44.570;18.610;2023-09-19T03:11:07;7.20;;;4.63;;
78183;SDS011;67442;44.570;18.610;2023-09-19T03:13:37;6.38;;;4.13;;
78183;SDS011;67442;44.570;18.610;2023-09-19T03:16:08;7.18;;;4.22;;
78183;SDS011;67442;44.570;18.610;2023-09-19T03:18:39;7.35;;;3.97;;
78183;SDS011;67442;44.570;18.610;2023-09-19T03:21:10;7.70;;;4.28;;
78183;SDS011;67442;44.570;18.610;2023-09-19T03:23:36;9.13;;;4.55;;
78183;SDS011;67442;44.570;18.610;2023-09-19T03:26:04;10.48;;;4.53;;
78183;SDS011;67442;44.570;18.610;2023-09-19T03:28:33;7.30;;;4.05;;
78183;SDS011;67442;44.570;18.610;2023-09-19T03:31:01;8.48;;;4.10;;
78183;SDS011;67442;44.570;18.610;2023-09-19T03:33:28;8.25;;;4.30;;
78183;SDS011;67442;44.570;18.610;2023-09-19T03:36:00;7.78;;;4.55;;
78183;SDS011;67442;44.570;18.610;2023-09-19T03:38:30;8.35;;;4.45;;
78183;SDS011;67442;44.570;18.610;2023-09-19T03:40:58;6.70;;;3.88;;
78183;SDS011;67442;44.570;18.610;2023-09-19T03:43:25;8.48;;;4.40;;
78183;SDS011;67442;44.570;18.610;2023-09-19T03:45:55;5.07;;;3.95;;
78183;SDS011;67442;44.570;18.610;2023-09-19T03:48:43;9.25;;;4.30;;
78183;SDS011;67442;44.570;18.610;2023-09-19T03:51:10;7.30;;;4.57;;
78183;SDS011;67442;44.570;18.610;2023-09-19T03:53:38;7.10;;;4.22;;
78183;SDS011;67442;44.570;18.610;2023-09-19T03:56:09;7.82;;;4.07;;
78183;SDS011;67442;44.570;18.610;2023-09-19T03:58:36;9.73;;;4.32;;
78183;SDS011;67442;44.570;18.610;2023-09-19T04:01:05;7.88;;;4.32;;
78183;SDS011;67442;44.570;18.610;2023-09-19T04:03:33;7.55;;;3.83;;
78183;SDS011;67442;44.570;18.610;2023-09-19T04:06:14;6.82;;;4.22;;
78183;SDS011;67442;44.570;18.610;2023-09-19T04:08:41;5.72;;;3.78;;
78183;SDS011;67442;44.570;18.610;2023-09-19T04:11:09;7.57;;;4.55;;
78183;SDS011;67442;44.570;18.610;2023-09-19T04:13:36;5.90;;;3.95;;
78183;SDS011;67442;44.570;18.610;2023-09-19T04:16:03;6.05;;;3.90;;
78183;SDS011;67442;44.570;18.610;2023-09-19T04:18:32;6.85;;;3.90;;
78183;SDS011;67442;44.570;18.610;2023-09-19T04:21:02;6.78;;;3.92;;
78183;SDS011;67442;44.570;18.610;2023-09-19T04:23:31;6.80;;;3.83;;
78183;SDS011;67442;44.570;18.610;2023-09-19T04:25:59;6.35;;;4.18;;
78183;SDS011;67442;44.570;18.610;2023-09-19T04:28:26;6.38;;;3.92;;
78183;SDS011;67442;44.570;18.610;2023-09-19T04:30:54;6.25;;;3.88;;
78183;SDS011;67442;44.570;18.610;2023-09-19T04:33:21;7.22;;;4.35;;
78183;SDS011;67442;44.570;18.610;2023-09-19T04:35:49;7.30;;;3.60;;
78183;SDS011;67442;44.570;18.610;2023-09-19T04:38:20;6.05;;;4.03;;
78183;SDS011;67442;44.570;18.610;2023-09-19T04:40:47;6.70;;;4.30;;
78183;SDS011;67442;44.570;18.610;2023-09-19T04:43:14;8.02;;;4.47;;
78183;SDS011;67442;44.570;18.610;2023-09-19T04:45:41;15.73;;;5.97;;
78183;SDS011;67442;44.570;18.610;2023-09-19T04:48:09;52.90;;;13.25;;
78183;SDS011;67442;44.570;18.610;2023-09-19T04:50:36;49.17;;;14.60;;
78183;SDS011;67442;44.570;18.610;2023-09-19T04:53:04;68.60;;;17.27;;
78183;SDS011;67442;44.570;18.610;2023-09-19T04:55:30;70.03;;;20.48;;
78183;SDS011;67442;44.570;18.610;2023-09-19T04:58:01;62.85;;;20.13;;
78183;SDS011;67442;44.570;18.610;2023-09-19T05:00:29;87.22;;;25.27;;
78183;SDS011;67442;44.570;18.610;2023-09-19T05:03:00;99.25;;;25.25;;
78183;SDS011;67442;44.570;18.610;2023-09-19T05:05:29;101.68;;;25.58;;
78183;SDS011;67442;44.570;18.610;2023-09-19T05:07:57;95.78;;;26.95;;
78183;SDS011;67442;44.570;18.610;2023-09-19T05:10:25;105.78;;;28.52;;
78183;SDS011;67442;44.570;18.610;2023-09-19T05:12:55;92.65;;;27.35;;
78183;SDS011;67442;44.570;18.610;2023-09-19T05:15:22;92.57;;;29.00;;
78183;SDS011;67442;44.570;18.610;2023-09-19T05:17:53;95.75;;;28.27;;
78183;SDS011;67442;44.570;18.610;2023-09-19T05:20:21;98.72;;;28.02;;
78183;SDS011;67442;44.570;18.610;2023-09-19T05:23:04;88.78;;;28.23;;
78183;SDS011;67442;44.570;18.610;2023-09-19T05:25:40;106.28;;;29.92;;
78183;SDS011;67442;44.570;18.610;2023-09-19T05:28:11;82.28;;;26.42;;
78183;SDS011;67442;44.570;18.610;2023-09-19T05:30:43;92.43;;;27.48;;
78183;SDS011;67442;44.570;18.610;2023-09-19T05:33:11;94.00;;;28.30;;
78183;SDS011;67442;44.570;18.610;2023-09-19T05:35:39;97.30;;;29.27;;
78183;SDS011;67442;44.570;18.610;2023-09-19T05:38:09;90.95;;;26.98;;
78183;SDS011;67442;44.570;18.610;2023-09-19T05:40:41;91.15;;;28.13;;
78183;SDS011;67442;44.570;18.610;2023-09-19T05:43:13;87.28;;;27.48;;
78183;SDS011;67442;44.570;18.610;2023-09-19T05:45:40;82.70;;;26.27;;
78183;SDS011;67442;44.570;18.610;2023-09-19T05:48:11;73.05;;;24.65;;
78183;SDS011;67442;44.570;18.610;2023-09-19T05:50:40;90.18;;;26.98;;
78183;SDS011;67442;44.570;18.610;2023-09-19T05:53:10;74.47;;;24.88;;
78183;SDS011;67442;44.570;18.610;2023-09-19T05:55:40;77.57;;;23.85;;
78183;SDS011;67442;44.570;18.610;2023-09-19T05:58:07;75.85;;;24.60;;
78183;SDS011;67442;44.570;18.610;2023-09-19T06:00:38;75.38;;;23.83;;
78183;SDS011;67442;44.570;18.610;2023-09-19T06:03:11;73.32;;;23.70;;
78183;SDS011;67442;44.570;18.610;2023-09-19T06:05:39;68.20;;;22.25;;
78183;SDS011;67442;44.570;18.610;2023-09-19T06:08:07;72.78;;;22.67;;
78183;SDS011;67442;44.570;18.610;2023-09-19T06:10:35;67.13;;;22.73;;
78183;SDS011;67442;44.570;18.610;2023-09-19T06:13:02;73.88;;;22.48;;
78183;SDS011;67442;44.570;18.610;2023-09-19T06:15:35;62.83;;;21.48;;
78183;SDS011;67442;44.570;18.610;2023-09-19T06:18:02;58.20;;;20.67;;
78183;SDS011;67442;44.570;18.610;2023-09-19T06:20:30;61.28;;;20.95;;
78183;SDS011;67442;44.570;18.610;2023-09-19T06:22:58;63.95;;;21.23;;
78183;SDS011;67442;44.570;18.610;2023-09-19T06:25:27;59.45;;;19.42;;
78183;SDS011;67442;44.570;18.610;2023-09-19T06:27:55;65.90;;;22.35;;
78183;SDS011;67442;44.570;18.610;2023-09-19T06:30:23;56.90;;;20.40;;
78183;SDS011;67442;44.570;18.610;2023-09-19T06:32:55;60.08;;;21.45;;
78183;SDS011;67442;44.570;18.610;2023-09-19T06:35:22;58.78;;;20.48;;
78183;SDS011;67442;44.570;18.610;2023-09-19T06:37:54;70.97;;;22.80;;
78183;SDS011;67442;44.570;18.610;2023-09-19T06:40:23;52.20;;;19.08;;
78183;SDS011;67442;44.570;18.610;2023-09-19T06:42:51;60.40;;;19.95;;
78183;SDS011;67442;44.570;18.610;2023-09-19T06:45:22;52.40;;;18.70;;
78183;SDS011;67442;44.570;18.610;2023-09-19T06:47:52;59.38;;;19.08;;
78183;SDS011;67442;44.570;18.610;2023-09-19T06:50:25;53.47;;;18.98;;
78183;SDS011;67442;44.570;18.610;2023-09-19T06:52:53;56.92;;;19.35;;
78183;SDS011;67442;44.570;18.610;2023-09-19T06:55:27;55.78;;;18.58;;
78183;SDS011;67442;44.570;18.610;2023-09-19T06:57:56;50.63;;;18.13;;
78183;SDS011;67442;44.570;18.610;2023-09-19T07:00:24;54.03;;;18.45;;
78183;SDS011;67442;44.570;18.610;2023-09-19T07:03:06;60.85;;;18.75;;
78183;SDS011;67442;44.570;18.610;2023-09-19T07:05:39;55.17;;;18.45;;
78183;SDS011;67442;44.570;18.610;2023-09-19T07:08:09;50.25;;;18.73;;
78183;SDS011;67442;44.570;18.610;2023-09-19T07:10:38;49.22;;;18.38;;
78183;SDS011;67442;44.570;18.610;2023-09-19T07:13:06;53.08;;;18.92;;
78183;SDS011;67442;44.570;18.610;2023-09-19T07:15:38;54.30;;;18.17;;
78183;SDS011;67442;44.570;18.610;2023-09-19T07:18:14;45.20;;;17.52;;
78183;SDS011;67442;44.570;18.610;2023-09-19T07:20:45;51.05;;;18.15;;
78183;SDS011;67442;44.570;18.610;2023-09-19T07:23:15;53.20;;;17.73;;
78183;SDS011;67442;44.570;18.610;2023-09-19T07:25:46;49.30;;;17.17;;
78183;SDS011;67442;44.570;18.610;2023-09-19T07:28:14;50.20;;;17.65;;
78183;SDS011;67442;44.570;18.610;2023-09-19T07:30:40;56.28;;;17.70;;
78183;SDS011;67442;44.570;18.610;2023-09-19T07:33:08;47.25;;;18.83;;
78183;SDS011;67442;44.570;18.610;2023-09-19T07:35:37;45.35;;;17.27;;
78183;SDS011;67442;44.570;18.610;2023-09-19T07:38:08;51.53;;;19.20;;
78183;SDS011;67442;44.570;18.610;2023-09-19T07:40:36;48.90;;;17.85;;
78183;SDS011;67442;44.570;18.610;2023-09-19T07:43:04;44.00;;;16.95;;
78183;SDS011;67442;44.570;18.610;2023-09-19T07:45:36;49.53;;;17.95;;
78183;SDS011;67442;44.570;18.610;2023-09-19T07:48:07;47.90;;;17.30;;
78183;SDS011;67442;44.570;18.610;2023-09-19T07:50:43;45.03;;;16.48;;
78183;SDS011;67442;44.570;18.610;2023-09-19T07:53:10;41.72;;;16.33;;
78183;SDS011;67442;44.570;18.610;2023-09-19T07:55:41;43.10;;;16.85;;
78183;SDS011;67442;44.570;18.610;2023-09-19T07:58:09;44.20;;;15.95;;
78183;SDS011;67442;44.570;18.610;2023-09-19T08:00:38;46.20;;;16.25;;
78183;SDS011;67442;44.570;18.610;2023-09-19T08:03:06;46.60;;;16.35;;
78183;SDS011;67442;44.570;18.610;2023-09-19T08:05:34;45.38;;;16.13;;
78183;SDS011;67442;44.570;18.610;2023-09-19T08:08:02;43.05;;;16.60;;
78183;SDS011;67442;44.570;18.610;2023-09-19T08:10:32;40.83;;;15.82;;
78183;SDS011;67442;44.570;18.610;2023-09-19T08:13:04;44.50;;;15.60;;
78183;SDS011;67442;44.570;18.610;2023-09-19T08:15:42;47.72;;;16.08;;
78183;SDS011;67442;44.570;18.610;2023-09-19T08:18:09;42.25;;;15.10;;
78183;SDS011;67442;44.570;18.610;2023-09-19T08:20:37;36.70;;;15.20;;
78183;SDS011;67442;44.570;18.610;2023-09-19T08:23:07;45.53;;;15.05;;
78183;SDS011;67442;44.570;18.610;2023-09-19T08:25:34;44.03;;;15.50;;
78183;SDS011;67442;44.570;18.610;2023-09-19T08:28:04;37.92;;;14.95;;
78183;SDS011;67442;44.570;18.610;2023-09-19T08:30:33;38.38;;;15.65;;
78183;SDS011;67442;44.570;18.610;2023-09-19T08:33:06;38.78;;;15.32;;
78183;SDS011;67442;44.570;18.610;2023-09-19T08:35:37;41.80;;;15.27;;
78183;SDS011;67442;44.570;18.610;2023-09-19T08:38:10;34.83;;;14.68;;
78183;SDS011;67442;44.570;18.610;2023-09-19T08:40:39;39.75;;;14.88;;
78183;SDS011;67442;44.570;18.610;2023-09-19T08:43:08;33.40;;;13.63;;
78183;SDS011;67442;44.570;18.610;2023-09-19T08:45:35;36.42;;;15.15;;
78183;SDS011;67442;44.570;18.610;2023-09-19T08:48:20;34.78;;;14.32;;
78183;SDS011;67442;44.570;18.610;2023-09-19T08:56:12;35.88;;;13.55;;
78183;SDS011;67442;44.570;18.610;2023-09-19T08:58:48;34.20;;;14.00;;
78183;SDS011;67442;44.570;18.610;2023-09-19T09:01:20;33.25;;;13.75;;
78183;SDS011;67442;44.570;18.610;2023-09-19T09:04:06;35.17;;;14.25;;
78183;SDS011;67442;44.570;18.610;2023-09-19T09:06:34;31.48;;;13.95;;
78183;SDS011;67442;44.570;18.610;2023-09-19T09:09:02;32.17;;;13.20;;
78183;SDS011;67442;44.570;18.610;2023-09-19T09:11:30;30.17;;;13.55;;
78183;SDS011;67442;44.570;18.610;2023-09-19T09:14:03;32.25;;;13.15;;
78183;SDS011;67442;44.570;18.610;2023-09-19T09:16:33;32.15;;;12.93;;
78183;SDS011;67442;44.570;18.610;2023-09-19T09:19:01;32.95;;;13.73;;
78183;SDS011;67442;44.570;18.610;2023-09-19T09:21:29;29.40;;;12.30;;
78183;SDS011;67442;44.570;18.610;2023-09-19T09:26:59;33.15;;;13.60;;
78183;SDS011;67442;44.570;18.610;2023-09-19T09:29:48;35.50;;;13.05;;
78183;SDS011;67442;44.570;18.610;2023-09-19T09:32:27;26.42;;;12.00;;
78183;SDS011;67442;44.570;18.610;2023-09-19T09:35:02;28.77;;;12.45;;
78183;SDS011;67442;44.570;18.610;2023-09-19T09:37:40;27.98;;;11.90;;
78183;SDS011;67442;44.570;18.610;2023-09-19T09:40:15;29.20;;;12.45;;
78183;SDS011;67442;44.570;18.610;2023-09-19T09:42:42;27.23;;;12.20;;
78183;SDS011;67442;44.570;18.610;2023-09-19T09:45:13;28.27;;;12.07;;
78183;SDS011;67442;44.570;18.610;2023-09-19T09:47:45;29.25;;;12.25;;
78183;SDS011;67442;44.570;18.610;2023-09-19T09:50:24;31.50;;;12.07;;
78183;SDS011;67442;44.570;18.610;2023-09-19T09:53:21;25.42;;;11.70;;
78183;SDS011;67442;44.570;18.610;2023-09-19T09:56:02;31.02;;;13.32;;
78183;SDS011;67442;44.570;18.610;2023-09-19T09:58:38;25.65;;;12.13;;
78183;SDS011;67442;44.570;18.610;2023-09-19T10:01:46;28.08;;;11.57;;
78183;SDS011;67442;44.570;18.610;2023-09-19T10:04:26;30.13;;;12.35;;
78183;SDS011;67442;44.570;18.610;2023-09-19T10:07:02;26.95;;;11.77;;
78183;SDS011;67442;44.570;18.610;2023-09-19T10:09:46;26.73;;;11.75;;
78183;SDS011;67442;44.570;18.610;2023-09-19T10:12:14;28.95;;;12.07;;
78183;SDS011;67442;44.570;18.610;2023-09-19T10:14:44;27.73;;;11.65;;
78183;SDS011;67442;44.570;18.610;2023-09-19T10:17:12;32.97;;;12.25;;
78183;SDS011;67442;44.570;18.610;2023-09-19T10:19:54;24.50;;;11.02;;
78183;SDS011;67442;44.570;18.610;2023-09-19T10:22:24;29.20;;;11.90;;
78183;SDS011;67442;44.570;18.610;2023-09-19T10:24:55;25.05;;;11.18;;
78183;SDS011;67442;44.570;18.610;2023-09-19T10:27:25;26.65;;;11.68;;
78183;SDS011;67442;44.570;18.610;2023-09-19T10:29:54;25.15;;;11.20;;
78183;SDS011;67442;44.570;18.610;2023-09-19T10:32:25;29.67;;;11.30;;
78183;SDS011;67442;44.570;18.610;2023-09-19T10:35:01;29.27;;;11.63;;
78183;SDS011;67442;44.570;18.610;2023-09-19T10:37:32;25.30;;;11.05;;
78183;SDS011;67442;44.570;18.610;2023-09-19T10:40:03;26.83;;;11.20;;
78183;SDS011;67442;44.570;18.610;2023-09-19T10:42:41;23.38;;;11.00;;
78183;SDS011;67442;44.570;18.610;2023-09-19T10:45:11;25.27;;;11.32;;
78183;SDS011;67442;44.570;18.610;2023-09-19T10:47:41;24.67;;;10.30;;
78183;SDS011;67442;44.570;18.610;2023-09-19T10:50:08;25.95;;;10.63;;
78183;SDS011;67442;44.570;18.610;2023-09-19T10:52:47;25.30;;;11.60;;
78183;SDS011;67442;44.570;18.610;2023-09-19T10:55:17;26.77;;;11.38;;
78183;SDS011;67442;44.570;18.610;2023-09-19T10:57:47;27.00;;;11.98;;
78183;SDS011;67442;44.570;18.610;2023-09-19T11:00:19;23.52;;;10.48;;
78183;SDS011;67442;44.570;18.610;2023-09-19T11:05:36;19.95;;;9.57;;
78183;SDS011;67442;44.570;18.610;2023-09-19T11:08:06;27.98;;;10.63;;
78183;SDS011;67442;44.570;18.610;2023-09-19T11:10:49;21.23;;;10.27;;
78183;SDS011;67442;44.570;18.610;2023-09-19T11:13:26;26.15;;;10.50;;
78183;SDS011;67442;44.570;18.610;2023-09-19T11:26:50;27.67;;;10.77;;
78183;SDS011;67442;44.570;18.610;2023-09-19T11:29:34;20.02;;;9.85;;
78183;SDS011;67442;44.570;18.610;2023-09-19T11:32:03;22.35;;;10.13;;
78183;SDS011;67442;44.570;18.610;2023-09-19T11:39:39;25.65;;;9.73;;
78183;SDS011;67442;44.570;18.610;2023-09-19T11:45:07;19.35;;;9.50;;
78183;SDS011;67442;44.570;18.610;2023-09-19T11:47:55;20.23;;;9.52;;
78183;SDS011;67442;44.570;18.610;2023-09-19T11:50:24;22.70;;;9.98;;
78183;SDS011;67442;44.570;18.610;2023-09-19T11:52:51;21.98;;;10.25;;
78183;SDS011;67442;44.570;18.610;2023-09-19T11:55:21;18.58;;;9.23;;
78183;SDS011;67442;44.570;18.610;2023-09-19T11:57:49;23.40;;;9.73;;
78183;SDS011;67442;44.570;18.610;2023-09-19T12:00:17;20.15;;;9.65;;
78183;SDS011;67442;44.570;18.610;2023-09-19T12:02:46;19.63;;;10.13;;
78183;SDS011;67442;44.570;18.610;2023-09-19T12:05:16;19.23;;;8.77;;
78183;SDS011;67442;44.570;18.610;2023-09-19T12:07:54;20.38;;;9.50;;
78183;SDS011;67442;44.570;18.610;2023-09-19T12:10:21;20.77;;;9.85;;
78183;SDS011;67442;44.570;18.610;2023-09-19T12:12:49;21.58;;;9.55;;
78183;SDS011;67442;44.570;18.610;2023-09-19T12:15:25;22.90;;;9.70;;
78183;SDS011;67442;44.570;18.610;2023-09-19T12:17:55;18.10;;;8.68;;
78183;SDS011;67442;44.570;18.610;2023-09-19T12:20:42;21.58;;;9.90;;
78183;SDS011;67442;44.570;18.610;2023-09-19T12:23:13;17.65;;;8.32;;
78183;SDS011;67442;44.570;18.610;2023-09-19T12:25:43;20.90;;;9.10;;
78183;SDS011;67442;44.570;18.610;2023-09-19T12:28:15;17.58;;;8.63;;
78183;SDS011;67442;44.570;18.610;2023-09-19T12:31:07;18.30;;;9.10;;
78183;SDS011;67442;44.570;18.610;2023-09-19T12:33:35;17.65;;;9.23;;
78183;SDS011;67442;44.570;18.610;2023-09-19T12:36:19;21.48;;;9.02;;
78183;SDS011;67442;44.570;18.610;2023-09-19T12:39:05;19.90;;;8.95;;
78183;SDS011;67442;44.570;18.610;2023-09-19T12:41:35;18.00;;;9.05;;
78183;SDS011;67442;44.570;18.610;2023-09-19T12:44:03;19.48;;;9.07;;
78183;SDS011;67442;44.570;18.610;2023-09-19T12:46:34;19.38;;;8.98;;
78183;SDS011;67442;44.570;18.610;2023-09-19T12:49:19;22.30;;;9.75;;
78183;SDS011;67442;44.570;18.610;2023-09-19T12:51:46;18.48;;;9.18;;
78183;SDS011;67442;44.570;18.610;2023-09-19T12:54:13;20.33;;;9.70;;
78183;SDS011;67442;44.570;18.610;2023-09-19T12:56:43;18.75;;;9.07;;
78183;SDS011;67442;44.570;18.610;2023-09-19T12:59:13;16.85;;;9.35;;
78183;SDS011;67442;44.570;18.610;2023-09-19T13:01:45;16.55;;;8.88;;
78183;SDS011;67442;44.570;18.610;2023-09-19T13:04:18;18.15;;;8.65;;
78183;SDS011;67442;44.570;18.610;2023-09-19T13:06:53;19.63;;;8.77;;
78183;SDS011;67442;44.570;18.610;2023-09-19T13:09:22;17.95;;;8.55;;
78183;SDS011;67442;44.570;18.610;2023-09-19T13:12:00;15.35;;;8.02;;
78183;SDS011;67442;44.570;18.610;2023-09-19T13:14:32;17.60;;;8.68;;
78183;SDS011;67442;44.570;18.610;2023-09-19T13:17:22;18.08;;;8.77;;
78183;SDS011;67442;44.570;18.610;2023-09-19T13:19:49;16.92;;;7.88;;
78183;SDS011;67442;44.570;18.610;2023-09-19T13:25:20;16.27;;;8.52;;
78183;SDS011;67442;44.570;18.610;2023-09-19T13:27:52;19.20;;;9.20;;
78183;SDS011;67442;44.570;18.610;2023-09-19T13:30:25;22.80;;;8.85;;
78183;SDS011;67442;44.570;18.610;2023-09-19T13:32:52;17.60;;;8.77;;
78183;SDS011;67442;44.570;18.610;2023-09-19T13:35:31;19.38;;;9.07;;
78183;SDS011;67442;44.570;18.610;2023-09-19T13:37:58;19.15;;;9.05;;
78183;SDS011;67442;44.570;18.610;2023-09-19T13:40:26;15.30;;;7.65;;
78183;SDS011;67442;44.570;18.610;2023-09-19T13:42:59;16.13;;;8.20;;
78183;SDS011;67442;44.570;18.610;2023-09-19T13:45:32;20.52;;;9.13;;
78183;SDS011;67442;44.570;18.610;2023-09-19T13:47:59;17.27;;;8.73;;
78183;SDS011;67442;44.570;18.610;2023-09-19T13:50:27;16.27;;;8.75;;
78183;SDS011;67442;44.570;18.610;2023-09-19T13:52:55;18.13;;;8.25;;
78183;SDS011;67442;44.570;18.610;2023-09-19T13:55:28;16.23;;;8.30;;
78183;SDS011;67442;44.570;18.610;2023-09-19T13:57:56;14.77;;;7.63;;
78183;SDS011;67442;44.570;18.610;2023-09-19T14:00:23;18.02;;;8.68;;
78183;SDS011;67442;44.570;18.610;2023-09-19T14:02:51;17.23;;;8.15;;
78183;SDS011;67442;44.570;18.610;2023-09-19T14:05:18;20.25;;;8.48;;
78183;SDS011;67442;44.570;18.610;2023-09-19T14:07:46;16.67;;;8.00;;
78183;SDS011;67442;44.570;18.610;2023-09-19T14:10:13;15.70;;;7.85;;
78183;SDS011;67442;44.570;18.610;2023-09-19T14:12:41;19.05;;;8.23;;
78183;SDS011;67442;44.570;18.610;2023-09-19T14:15:11;19.85;;;9.50;;
78183;SDS011;67442;44.570;18.610;2023-09-19T14:17:38;16.02;;;8.30;;
78183;SDS011;67442;44.570;18.610;2023-09-19T14:20:25;17.17;;;8.00;;
78183;SDS011;67442;44.570;18.610;2023-09-19T14:22:53;18.02;;;8.55;;
78183;SDS011;67442;44.570;18.610;2023-09-19T14:25:20;13.60;;;7.22;;
78183;SDS011;67442;44.570;18.610;2023-09-19T14:27:47;19.20;;;8.23;;
78183;SDS011;67442;44.570;18.610;2023-09-19T14:30:15;17.45;;;8.27;;
78183;SDS011;67442;44.570;18.610;2023-09-19T14:32:42;17.52;;;8.27;;
78183;SDS011;67442;44.570;18.610;2023-09-19T14:35:10;17.50;;;8.02;;
78183;SDS011;67442;44.570;18.610;2023-09-19T14:37:39;18.15;;;8.05;;
78183;SDS011;67442;44.570;18.610;2023-09-19T14:40:06;18.98;;;7.95;;
78183;SDS011;67442;44.570;18.610;2023-09-19T14:42:38;15.52;;;8.18;;
78183;SDS011;67442;44.570;18.610;2023-09-19T14:45:05;16.55;;;7.95;;
78183;SDS011;67442;44.570;18.610;2023-09-19T14:47:33;19.05;;;8.32;;
78183;SDS011;67442;44.570;18.610;2023-09-19T14:50:01;15.93;;;7.93;;
78183;SDS011;67442;44.570;18.610;2023-09-19T14:52:32;15.50;;;7.57;;
78183;SDS011;67442;44.570;18.610;2023-09-19T14:55:06;16.88;;;7.90;;
78183;SDS011;67442;44.570;18.610;2023-09-19T14:57:40;18.47;;;8.43;;
78183;SDS011;67442;44.570;18.610;2023-09-19T15:00:10;15.32;;;8.27;;
78183;SDS011;67442;44.570;18.610;2023-09-19T15:02:38;16.75;;;8.38;;
78183;SDS011;67442;44.570;18.610;2023-09-19T15:05:09;15.52;;;8.10;;
78183;SDS011;67442;44.570;18.610;2023-09-19T15:07:37;16.02;;;7.85;;
78183;SDS011;67442;44.570;18.610;2023-09-19T15:10:08;13.27;;;7.40;;
78183;SDS011;67442;44.570;18.610;2023-09-19T15:12:41;15.70;;;8.05;;
78183;SDS011;67442;44.570;18.610;2023-09-19T15:15:08;13.75;;;7.10;;
78183;SDS011;67442;44.570;18.610;2023-09-19T15:17:41;19.50;;;8.05;;
78183;SDS011;67442;44.570;18.610;2023-09-19T15:20:08;13.13;;;7.10;;
78183;SDS011;67442;44.570;18.610;2023-09-19T15:22:39;13.82;;;7.47;;
78183;SDS011;67442;44.570;18.610;2023-09-19T15:25:07;15.32;;;7.55;;
78183;SDS011;67442;44.570;18.610;2023-09-19T15:27:35;14.85;;;7.75;;
78183;SDS011;67442;44.570;18.610;2023-09-19T15:30:12;16.50;;;8.07;;
78183;SDS011;67442;44.570;18.610;2023-09-19T15:32:41;16.45;;;7.80;;